Time;durP1;ratioP1;P1;durP2;ratioP2;P2;SDS_P1;SDS_P2;PMS_P1;PMS_P2;Temp;Humidity;BMP_temperature;BMP_pressure;BME280_temperature;BME280_humidity;BME280_pressure;Samples;Min_cycle;Max_cycle;Signal;HPM_P1;HPM_P2
2023/10/08 00:02:22;;;;;;;867.35;823.58;;;;;;;21.11;46.47;99457.81;5057276;27;104336;-64
2023/10/08 00:04:51;;;;;;;837.95;796.38;;;;;;;21.87;44.95;99457.81;5056225;27;103763;-64
2023/10/08 00:07:21;;;;;;;843.80;802.70;;;;;;;22.44;43.63;99446.13;5075954;27;103822;-64
2023/10/08 00:09:52;;;;;;;851.50;809.30;;;;;;;22.82;43.48;99433.84;5076048;27;103303;-64
2023/10/08 00:12:22;;;;;;;873.40;828.25;;;;;;;21.92;45.34;99447.44;5079317;27;102723;-64
2023/10/08 00:14:51;;;;;;;902.63;855.20;;;;;;;21.11;46.92;99449.75;5080258;27;102995;-64
2023/10/08 00:17:22;;;;;;;880.30;834.58;;;;;;;21.77;45.83;99446.34;5061353;27;104123;-63
2023/10/08 00:19:52;;;;;;;882.75;836.83;;;;;;;22.30;44.95;99438.72;5076413;27;102684;-64
2023/10/08 00:22:22;;;;;;;871.15;825.95;;;;;;;22.44;44.65;99443.44;5080388;27;102737;-64
2023/10/08 00:24:58;;;;;;;861.77;818.17;;;;;;;22.87;43.87;99419.88;5061999;27;104331;-64
2023/10/08 00:27:26;;;;;;;859.90;816.47;;;;;;;22.86;43.83;99429.81;5077404;27;103469;-64
2023/10/08 00:29:57;;;;;;;855.03;812.33;;;;;;;23.13;43.71;99425.03;5058894;27;102689;-64
2023/10/08 00:32:27;;;;;;;886.50;840.00;;;;;;;22.48;45.05;99425.94;5078915;27;102682;-64
2023/10/08 00:34:55;;;;;;;881.20;834.60;;;;;;;22.35;45.12;99422.91;5061003;27;103966;-64
2023/10/08 00:37:26;;;;;;;868.60;823.23;;;;;;;21.74;45.40;99430.53;5062048;27;104188;-64
2023/10/08 00:39:57;;;;;;;873.77;828.03;;;;;;;21.88;45.23;99427.22;5058689;27;103035;-63
2023/10/08 00:42:28;;;;;;;878.95;833.17;;;;;;;21.29;46.72;99431.72;5079363;27;103989;-64
2023/10/08 00:44:56;;;;;;;874.83;828.80;;;;;;;21.74;45.77;99419.78;5056316;27;104077;-65
2023/10/08 00:47:27;;;;;;;855.65;811.42;;;;;;;22.29;44.51;99410.13;5054101;27;104169;-64
2023/10/08 00:50:04;;;;;;;862.22;818.03;;;;;;;22.82;43.88;99406.09;5074752;27;102643;-64
2023/10/08 00:52:40;;;;;;;845.90;802.87;;;;;;;23.20;43.30;99405.28;5077039;27;102638;-65
2023/10/08 00:55:19;;;;;;;860.90;816.00;;;;;;;23.04;44.06;99399.97;5059009;27;106710;-64
2023/10/08 00:57:50;;;;;;;869.80;823.40;;;;;;;22.52;45.45;99415.66;5077205;27;103184;-64
2023/10/08 01:00:21;;;;;;;898.05;849.63;;;;;;;22.32;45.79;99408.94;5077096;27;102814;-64
2023/10/08 01:02:55;;;;;;;863.38;817.50;;;;;;;22.68;44.65;99404.09;5079314;27;103780;-65
2023/10/08 01:05:37;;;;;;;857.88;812.05;;;;;;;22.76;44.12;99404.06;5076759;27;103288;-65
2023/10/08 01:08:06;;;;;;;908.30;859.25;;;;;;;21.99;45.97;99402.72;5078732;27;103174;-64
2023/10/08 01:10:37;;;;;;;868.70;822.67;;;;;;;22.92;44.19;99409.41;5076738;27;103464;-64
2023/10/08 01:13:07;;;;;;;866.70;819.87;;;;;;;22.69;44.43;99406.59;5078705;27;104065;-64
2023/10/08 01:15:37;;;;;;;888.30;839.35;;;;;;;22.99;44.58;99402.31;5057099;27;104223;-64
2023/10/08 01:18:14;;;;;;;899.33;850.17;;;;;;;22.72;45.29;99405.41;5057257;27;103748;-64
2023/10/08 01:20:51;;;;;;;987.30;929.88;;;;;;;20.98;49.49;99410.84;5054356;27;102808;-64
2023/10/08 01:23:22;;;;;;;953.67;901.20;;;;;;;20.98;48.68;99402.81;5054611;27;103777;-65
2023/10/08 01:25:52;;;;;;;920.15;871.28;;;;;;;21.89;46.69;99402.03;5074608;27;104130;-66
2023/10/08 01:28:25;;;;;;;941.55;890.50;;;;;;;21.68;47.45;99404.28;5077014;27;104615;-66
2023/10/08 01:30:55;;;;;;;972.63;918.00;;;;;;;20.91;48.76;99416.03;5073300;27;103074;-66
2023/10/08 01:33:27;;;;;;;910.17;861.42;;;;;;;21.38;47.30;99414.63;5075231;27;104180;-66
2023/10/08 01:36:01;;;;;;;911.95;862.42;;;;;;;21.35;46.99;99420.31;5052336;27;104279;-66
2023/10/08 01:38:32;;;;;;;917.33;867.15;;;;;;;21.17;47.07;99411.50;5074895;27;103397;-64
2023/10/08 01:41:04;;;;;;;892.38;843.40;;;;;;;21.96;46.05;99413.78;5057375;27;102701;-65
2023/10/08 01:43:32;;;;;;;869.43;821.07;;;;;;;22.31;45.10;99410.81;5054478;27;104561;-66
2023/10/08 01:46:03;;;;;;;902.33;851.58;;;;;;;21.90;45.80;99417.16;5053707;27;104638;-66
2023/10/08 01:48:37;;;;;;;921.40;871.10;;;;;;;21.59;46.03;99416.03;5056806;27;103233;-65
2023/10/08 01:51:09;;;;;;;871.88;823.28;;;;;;;22.23;44.69;99405.41;5057076;27;103202;-66
2023/10/08 01:53:39;;;;;;;888.47;837.83;;;;;;;22.56;44.56;99410.78;5054279;27;103720;-65
2023/10/08 01:56:10;;;;;;;891.13;841.45;;;;;;;22.36;44.89;99404.91;5056219;27;103584;-66
2023/10/08 01:58:39;;;;;;;921.53;868.97;;;;;;;22.20;45.39;99399.53;5074169;27;103357;-66
2023/10/08 02:01:12;;;;;;;914.30;862.97;;;;;;;22.33;45.76;99406.09;5069829;27;102672;-66
2023/10/08 02:03:41;;;;;;;957.05;902.45;;;;;;;21.63;46.92;99407.47;5056011;27;103185;-65
2023/10/08 02:06:10;;;;;;;975.65;919.67;;;;;;;21.23;48.42;99416.22;5070426;27;103693;-66
2023/10/08 02:08:40;;;;;;;968.37;914.47;;;;;;;21.52;47.50;99420.38;5074942;27;103536;-66
2023/10/08 02:11:10;;;;;;;937.25;886.25;;;;;;;21.35;47.18;99411.41;5057189;27;102793;-65
2023/10/08 02:13:39;;;;;;;948.60;895.95;;;;;;;21.11;47.55;99422.88;5074575;27;103902;-63
2023/10/08 02:16:07;;;;;;;890.25;840.92;;;;;;;21.96;46.11;99421.88;5073324;27;103653;-64
2023/10/08 02:18:35;;;;;;;877.47;827.20;;;;;;;22.23;45.22;99408.09;5077077;27;103286;-64
2023/10/08 02:21:05;;;;;;;903.17;851.38;;;;;;;22.21;45.51;99407.44;5058408;27;102655;-64
2023/10/08 02:23:34;;;;;;;1013.10;953.75;;;;;;;20.73;49.17;99424.16;5077228;27;103966;-64
2023/10/08 02:26:05;;;;;;;968.65;914.10;;;;;;;21.15;48.03;99418.88;5074142;27;103435;-64
2023/10/08 02:28:34;;;;;;;960.80;908.25;;;;;;;21.18;47.48;99423.09;5077074;27;103061;-64
2023/10/08 02:31:03;;;;;;;989.97;933.42;;;;;;;20.40;49.31;99421.38;5077612;27;102668;-64
2023/10/08 02:33:31;;;;;;;930.00;880.27;;;;;;;21.48;46.98;99419.84;5059568;27;104352;-64
2023/10/08 02:36:01;;;;;;;951.30;898.55;;;;;;;20.93;47.68;99419.41;5075313;27;103907;-64
2023/10/08 02:38:29;;;;;;;911.70;863.20;;;;;;;21.27;47.10;99420.28;5056449;27;103226;-64
2023/10/08 02:40:59;;;;;;;900.63;853.58;;;;;;;21.53;46.47;99422.06;5058706;27;103605;-64
2023/10/08 02:43:30;;;;;;;892.72;845.55;;;;;;;21.77;45.92;99411.38;5081443;27;103971;-65
2023/10/08 02:45:59;;;;;;;1002.40;943.85;;;;;;;20.59;49.07;99429.25;5061068;27;104132;-64
2023/10/08 02:48:28;;;;;;;918.67;869.70;;;;;;;21.42;47.52;99425.06;5077532;27;103551;-64
2023/10/08 02:51:06;;;;;;;1030.00;968.90;;;;;;;19.29;52.54;99428.88;5058219;27;103036;-65
2023/10/08 02:53:35;;;;;;;1023.05;963.10;;;;;;;20.06;50.76;99424.75;5076729;27;103768;-64
2023/10/08 02:56:12;;;;;;;1011.47;952.75;;;;;;;20.04;50.42;99429.41;5059191;27;104290;-64
2023/10/08 02:58:43;;;;;;;921.05;871.45;;;;;;;19.96;49.86;99423.97;5059278;27;102980;-64
2023/10/08 03:01:12;;;;;;;927.38;878.75;;;;;;;20.58;49.94;99419.50;5058820;27;103022;-64
2023/10/08 03:03:42;;;;;;;975.30;919.95;;;;;;;20.12;50.19;99424.16;5074721;27;103818;-64
2023/10/08 03:06:12;;;;;;;917.33;869.50;;;;;;;20.36;48.90;99414.63;5055535;27;104115;-64
2023/10/08 03:08:42;;;;;;;1017.58;959.15;;;;;;;19.99;51.64;99412.94;5059016;27;104193;-64
2023/10/08 03:11:17;;;;;;;959.70;905.63;;;;;;;19.51;52.07;99407.06;5075505;27;102589;-64
2023/10/08 03:13:51;;;;;;;960.85;907.35;;;;;;;20.53;50.57;99405.72;5057473;27;103725;-65
2023/10/08 03:16:28;;;;;;;925.70;876.57;;;;;;;20.36;49.71;99403.91;5076125;27;104667;-64
2023/10/08 03:18:57;;;;;;;1008.35;949.65;;;;;;;19.36;52.54;99397.81;5075504;27;103227;-64
2023/10/08 03:21:48;;;;;;;1001.10;941.13;;;;;;;20.09;52.21;99408.34;5054809;27;103029;-64
2023/10/08 03:24:29;;;;;;;1022.65;962.72;;;;;;;18.05;56.71;99408.59;5059526;27;102945;-64
2023/10/08 03:27:06;;;;;;;1010.53;952.72;;;;;;;19.07;53.76;99406.84;5080295;27;104007;-64
2023/10/08 03:29:40;;;;;;;931.58;881.45;;;;;;;20.51;51.23;99407.72;5060299;27;104130;-64
2023/10/08 03:32:16;;;;;;;1011.83;954.15;;;;;;;18.25;55.82;99416.44;5059643;27;103693;-64
2023/10/08 03:34:46;;;;;;;1006.40;949.08;;;;;;;19.55;53.28;99414.66;5060211;27;102792;-65
2023/10/08 03:37:21;;;;;;;1023.57;964.10;;;;;;;18.94;55.12;99417.06;5079997;27;104003;-64
2023/10/08 03:40:00;;;;;;;1012.67;953.60;;;;;;;19.20;54.00;99416.38;5079003;27;103118;-64
2023/10/08 03:42:34;;;;;;;934.77;882.77;;;;;;;20.16;51.48;99414.78;5077474;27;102885;-64
2023/10/08 03:45:11;;;;;;;947.15;895.83;;;;;;;20.51;50.96;99429.19;5061291;27;102802;-64
2023/10/08 03:47:46;;;;;;;974.53;922.50;;;;;;;20.76;49.44;99421.16;5079327;27;104112;-64
2023/10/08 03:50:17;;;;;;;987.90;931.70;;;;;;;19.40;52.94;99436.75;5078285;27;103245;-64
2023/10/08 03:52:47;;;;;;;1007.25;949.53;;;;;;;19.37;54.11;99434.34;5080038;27;102733;-64
2023/10/08 03:55:21;;;;;;;908.95;862.42;;;;;;;20.35;50.81;99432.56;5078085;27;103810;-64
2023/10/08 03:57:56;;;;;;;918.35;871.22;;;;;;;20.59;50.12;99432.78;5079674;27;104051;-64
2023/10/08 04:00:33;;;;;;;965.47;912.08;;;;;;;20.13;52.16;99436.53;5057116;27;103190;-64
2023/10/08 04:03:07;;;;;;;898.78;851.63;;;;;;;20.61;49.83;99429.91;5079524;27;102619;-64
2023/10/08 04:05:44;;;;;;;1003.50;945.20;;;;;;;19.56;53.77;99431.59;5078903;27;103570;-64
2023/10/08 04:08:24;;;;;;;915.10;868.57;;;;;;;20.58;51.19;99432.91;5076964;27;104004;-64
2023/10/08 04:11:28;;;;;;;931.00;881.78;;;;;;;20.60;50.23;99428.25;5075046;27;103307;-64
2023/10/08 04:14:00;;;;;;;934.00;884.80;;;;;;;20.74;49.89;99425.00;5059642;27;102707;-64
2023/10/08 04:16:30;;;;;;;892.33;846.58;;;;;;;21.01;49.23;99423.97;5061121;27;104445;-64
2023/10/08 04:19:03;;;;;;;926.10;877.38;;;;;;;21.15;48.78;99415.34;5077658;27;103853;-64
2023/10/08 04:21:33;;;;;;;971.08;919.20;;;;;;;21.20;48.62;99405.81;5078669;27;103378;-64
2023/10/08 04:24:04;;;;;;;991.20;939.38;;;;;;;21.17;48.51;99406.13;5060267;27;103116;-64
2023/10/08 04:26:33;;;;;;;966.70;913.53;;;;;;;20.42;51.27;99401.44;5061372;27;103640;-64
2023/10/08 04:29:02;;;;;;;1002.45;945.33;;;;;;;20.15;51.63;99396.97;5076586;27;103400;-64
2023/10/08 04:31:37;;;;;;;998.27;941.20;;;;;;;20.10;52.03;99390.41;5077812;27;103243;-64
2023/10/08 04:34:15;;;;;;;950.78;899.67;;;;;;;20.61;50.23;99395.03;5077067;27;102671;-64
2023/10/08 04:36:45;;;;;;;995.78;939.63;;;;;;;19.66;52.12;99395.69;5077668;27;103911;-64
2023/10/08 04:39:15;;;;;;;1001.00;942.88;;;;;;;19.08;54.36;99399.66;5076962;27;104855;-64
2023/10/08 04:41:43;;;;;;;1008.17;950.20;;;;;;;18.33;56.94;99407.72;5076851;27;103533;-64
2023/10/08 04:44:14;;;;;;;995.03;938.20;;;;;;;18.08;56.82;99419.81;5079742;27;102868;-64
2023/10/08 04:46:52;;;;;;;983.77;927.00;;;;;;;17.86;58.37;99426.28;5074114;27;104193;-64
2023/10/08 04:49:30;;;;;;;1003.42;946.63;;;;;;;17.51;59.15;99422.41;5078592;27;103409;-64
2023/10/08 04:52:05;;;;;;;989.50;933.83;;;;;;;18.18;56.65;99409.13;5076072;27;103372;-64
2023/10/08 04:54:33;;;;;;;994.15;938.00;;;;;;;18.86;54.78;99413.41;5079856;27;103179;-64
2023/10/08 04:57:06;;;;;;;942.75;891.70;;;;;;;19.57;52.45;99411.81;5060288;27;104046;-64
2023/10/08 04:59:34;;;;;;;964.72;911.25;;;;;;;19.54;53.46;99420.16;5059116;27;104209;-64
2023/10/08 05:02:26;;;;;;;906.20;858.78;;;;;;;20.22;51.49;99403.44;5073730;27;103765;-64
2023/10/08 05:05:21;;;;;;;905.13;858.40;;;;;;;20.39;50.79;99414.31;5059509;27;102990;-64
2023/10/08 05:11:00;;;;;;;942.50;891.07;;;;;;;19.83;52.35;99411.94;5076521;27;103983;-64
2023/10/08 05:13:35;;;;;;;934.13;883.87;;;;;;;20.27;51.20;99420.94;5057515;27;103195;-64
2023/10/08 05:16:11;;;;;;;886.28;841.47;;;;;;;20.66;50.14;99415.03;5075028;27;102691;-64
2023/10/08 05:19:24;;;;;;;889.10;844.03;;;;;;;20.80;49.36;99425.19;5077509;27;103134;-64
2023/10/08 05:22:01;;;;;;;890.13;843.80;;;;;;;20.39;49.97;99430.41;5073690;27;104036;-64
2023/10/08 05:24:40;;;;;;;906.57;859.27;;;;;;;20.54;49.83;99428.88;5073298;27;103152;-64
2023/10/08 05:27:37;;;;;;;898.73;852.83;;;;;;;20.65;50.03;99421.41;5072342;27;102878;-64
2023/10/08 05:30:16;;;;;;;1018.25;961.00;;;;;;;19.42;53.39;99434.78;5056410;27;102750;-65
2023/10/08 05:33:06;;;;;;;983.72;928.63;;;;;;;19.44;53.50;99436.31;5076240;27;104070;-64
2023/10/08 05:38:30;;;;;;;896.75;849.63;;;;;;;20.25;50.88;99429.13;5075515;27;102800;-64
2023/10/08 05:41:05;;;;;;;1003.30;947.63;;;;;;;18.71;54.34;99434.44;5077238;27;104001;-63
2023/10/08 05:43:48;;;;;;;955.75;903.20;;;;;;;19.68;52.39;99441.94;5077841;27;104159;-64
2023/10/08 05:49:25;;;;;;;896.53;850.92;;;;;;;20.23;51.15;99444.53;5073841;27;103219;-63
2023/10/08 05:52:11;;;;;;;983.70;928.57;;;;;;;19.37;54.31;99447.75;5071837;27;104544;-63
2023/10/08 05:54:57;;;;;;;958.05;905.83;;;;;;;19.73;52.44;99444.19;5055977;27;105190;-63
2023/10/08 05:57:38;;;;;;;914.10;867.35;;;;;;;20.31;50.89;99444.63;5078433;27;103179;-63
2023/10/08 06:00:46;;;;;;;898.85;854.03;;;;;;;20.63;49.98;99444.88;5060226;27;102695;-63
2023/10/08 06:03:32;;;;;;;907.83;859.97;;;;;;;20.31;50.86;99459.88;5071176;27;103744;-63
2023/10/08 06:09:20;;;;;;;902.28;854.67;;;;;;;20.16;51.39;99451.47;5078409;27;103280;-63
2023/10/08 06:12:08;;;;;;;907.42;861.08;;;;;;;19.77;51.21;99448.25;5078503;27;102617;-63
2023/10/08 06:15:08;;;;;;;912.67;866.15;;;;;;;20.55;50.69;99442.13;5079326;27;104002;-63
2023/10/08 06:17:56;;;;;;;936.25;885.40;;;;;;;20.04;51.13;99448.19;5080141;27;103438;-63
2023/10/08 06:20:26;;;;;;;896.22;850.33;;;;;;;20.72;50.27;99437.72;5080903;27;104006;-64
2023/10/08 06:22:59;;;;;;;933.20;883.63;;;;;;;19.95;51.85;99448.28;5080839;27;102738;-64
2023/10/08 06:43:12;;;;;;;857.05;815.10;;;;;;;21.13;49.84;99442.41;5080291;27;104114;-64
2023/10/08 06:45:40;;;;;;;866.00;823.30;;;;;;;21.33;49.26;99443.81;5057151;27;103930;-64
2023/10/08 06:48:17;;;;;;;884.33;840.13;;;;;;;21.27;49.63;99436.41;5059095;27;104223;-62
2023/10/08 06:50:46;;;;;;;898.05;852.40;;;;;;;21.29;49.68;99437.09;5078632;27;103861;-63
2023/10/08 06:53:14;;;;;;;890.05;845.88;;;;;;;21.47;49.55;99434.31;5079392;27;103186;-63
2023/10/08 06:55:43;;;;;;;945.63;895.50;;;;;;;20.71;51.28;99434.22;5058115;27;104214;-63
2023/10/08 06:58:14;;;;;;;989.00;933.47;;;;;;;20.30;54.19;99444.75;5076905;27;102918;-63
2023/10/08 07:00:47;;;;;;;984.45;929.83;;;;;;;18.91;56.85;99449.47;5060351;27;102602;-63
2023/10/08 07:03:18;;;;;;;987.28;931.22;;;;;;;19.01;56.67;99466.34;5078313;27;103874;-63
2023/10/08 07:05:57;;;;;;;932.65;882.20;;;;;;;19.82;53.94;99464.72;5076460;27;104212;-63
2023/10/08 07:08:29;;;;;;;888.65;842.00;;;;;;;20.50;51.97;99470.44;5074068;27;103404;-65
2023/10/08 07:10:58;;;;;;;901.83;855.63;;;;;;;20.92;51.84;99466.06;5079759;27;102779;-62
2023/10/08 07:13:29;;;;;;;866.97;823.87;;;;;;;22.21;49.43;99477.41;5060082;27;102692;-67
2023/10/08 07:15:57;;;;;;;894.40;849.08;;;;;;;22.05;49.32;99476.53;5061458;27;104252;-67
2023/10/08 07:18:25;;;;;;;866.13;822.85;;;;;;;22.18;49.16;99472.34;5080068;27;103317;-67
2023/10/08 07:21:00;;;;;;;856.93;815.53;;;;;;;21.38;49.22;99484.50;5059570;27;102764;-67
2023/10/08 07:23:33;;;;;;;864.63;821.67;;;;;;;21.22;49.96;99479.03;5079839;27;103806;-63
2023/10/08 07:26:10;;;;;;;839.70;798.97;;;;;;;20.61;49.71;99483.63;5078810;27;103328;-66
2023/10/08 07:28:41;;;;;;;861.13;817.63;;;;;;;21.26;49.43;99488.47;5059340;27;103757;-66
2023/10/08 07:31:15;;;;;;;867.63;824.23;;;;;;;21.23;49.80;99486.09;5062722;27;102965;-67
2023/10/08 07:33:44;;;;;;;827.13;786.78;;;;;;;21.89;48.19;99475.47;5060426;27;103864;-62
2023/10/08 07:36:18;;;;;;;789.80;751.07;;;;;;;21.80;47.59;99480.97;5080784;27;103761;-67
2023/10/08 07:38:46;;;;;;;791.95;753.42;;;;;;;22.49;46.79;99481.47;5080017;27;104850;-62
2023/10/08 07:41:15;;;;;;;779.40;742.85;;;;;;;22.85;45.91;99475.78;5077969;27;102735;-62
2023/10/08 07:43:53;;;;;;;785.10;747.20;;;;;;;23.19;45.45;99476.38;5079315;27;102764;-62
2023/10/08 07:46:20;;;;;;;768.88;731.88;;;;;;;23.34;44.85;99480.03;5078278;27;105597;-62
2023/10/08 07:48:50;;;;;;;781.35;743.42;;;;;;;23.63;44.55;99468.69;5078265;27;103209;-66
2023/10/08 07:51:21;;;;;;;810.22;770.00;;;;;;;23.13;46.72;99462.75;5074342;27;104107;-62
2023/10/08 07:53:54;;;;;;;813.50;772.57;;;;;;;22.66;48.32;99462.66;5079276;27;103098;-62
2023/10/08 07:56:22;;;;;;;797.08;757.35;;;;;;;23.58;46.44;99450.31;5080012;27;103353;-61
2023/10/08 07:58:52;;;;;;;815.72;774.70;;;;;;;23.25;46.52;99442.50;5081296;27;103188;-66
2023/10/08 08:01:20;;;;;;;781.93;743.43;;;;;;;23.86;45.68;99455.25;5081808;27;103057;-67
2023/10/08 08:03:50;;;;;;;772.17;734.60;;;;;;;24.03;45.36;99456.81;5079517;27;104145;-67
2023/10/08 08:06:18;;;;;;;843.35;799.92;;;;;;;22.91;48.31;99472.38;5081962;27;103371;-63
2023/10/08 08:08:46;;;;;;;872.40;828.28;;;;;;;21.64;50.50;99478.25;5081348;27;103253;-63
2023/10/08 08:11:17;;;;;;;895.13;848.77;;;;;;;21.55;51.69;99501.56;5076735;27;102713;-63
2023/10/08 08:13:46;;;;;;;902.43;854.67;;;;;;;21.16;53.52;99514.63;5082124;27;103847;-63
2023/10/08 08:16:19;;;;;;;855.60;813.42;;;;;;;21.90;51.57;99516.66;5061397;27;105681;-63
2023/10/08 08:18:49;;;;;;;829.47;789.08;;;;;;;21.83;50.94;99523.69;5081741;27;103188;-63
2023/10/08 08:21:19;;;;;;;809.95;770.42;;;;;;;23.94;47.65;99514.56;5059554;27;103514;-62
2023/10/08 08:23:50;;;;;;;798.40;759.95;;;;;;;24.43;45.58;99521.38;5082671;27;102730;-66
2023/10/08 08:26:29;;;;;;;771.50;735.05;;;;;;;25.01;44.23;99509.97;5078021;27;103357;-62
2023/10/08 08:28:59;;;;;;;765.22;728.70;;;;;;;26.17;42.74;99519.16;5079422;27;104347;-62
2023/10/08 08:31:31;;;;;;;772.63;736.13;;;;;;;25.91;43.41;99518.78;5081306;27;103329;-62
2023/10/08 08:34:02;;;;;;;722.97;690.17;;;;;;;26.64;41.44;99534.84;5079944;27;103952;-61
2023/10/08 08:36:32;;;;;;;730.83;697.47;;;;;;;26.20;42.10;99542.28;5076592;27;103252;-62
2023/10/08 08:39:00;;;;;;;758.97;724.15;;;;;;;26.74;41.12;99546.22;5079751;27;103335;-62
2023/10/08 08:41:28;;;;;;;739.40;706.20;;;;;;;27.41;40.28;99543.09;5080178;27;102600;-62
2023/10/08 08:43:59;;;;;;;640.93;614.03;;;;;;;27.92;38.19;99546.31;5080337;27;103102;-62
2023/10/08 08:46:32;;;;;;;662.42;633.13;;;;;;;27.69;39.64;99535.75;5077726;27;104125;-61
2023/10/08 08:49:05;;;;;;;579.55;555.55;;;;;;;28.13;39.73;99544.34;5079374;27;104150;-62
2023/10/08 08:51:35;;;;;;;609.63;584.40;;;;;;;28.05;39.49;99544.53;5073192;27;102744;-64
2023/10/08 08:54:06;;;;;;;639.05;611.92;;;;;;;27.83;39.48;99539.38;5068879;27;104644;-64
2023/10/08 08:56:36;;;;;;;599.95;575.58;;;;;;;27.90;38.58;99543.78;5070171;27;105318;-64
2023/10/08 08:59:05;;;;;;;571.00;547.90;;;;;;;27.94;39.19;99539.63;5071432;27;103021;-64
2023/10/08 09:01:35;;;;;;;424.45;408.40;;;;;;;28.43;37.91;99530.44;5051527;27;103023;-64
2023/10/08 09:04:05;;;;;;;308.27;297.33;;;;;;;29.53;36.45;99533.47;5073706;27;103889;-64
2023/10/08 09:06:38;;;;;;;301.83;290.87;;;;;;;29.28;36.92;99525.13;5075838;27;103266;-64
2023/10/08 09:09:21;;;;;;;287.10;276.77;;;;;;;29.12;36.23;99520.94;5057897;27;103000;-64
2023/10/08 09:11:52;;;;;;;288.52;277.85;;;;;;;29.34;36.26;99521.56;5077488;27;103083;-64
2023/10/08 09:14:22;;;;;;;309.55;298.10;;;;;;;29.51;35.52;99516.50;5074507;27;103045;-64
2023/10/08 09:16:52;;;;;;;310.95;299.38;;;;;;;30.11;34.91;99524.31;5070802;27;103907;-63
2023/10/08 09:19:22;;;;;;;369.85;355.17;;;;;;;30.10;34.74;99528.06;5077101;27;103374;-63
2023/10/08 09:22:03;;;;;;;317.67;306.13;;;;;;;29.39;35.97;99523.66;5057175;27;102956;-64
2023/10/08 09:24:33;;;;;;;323.80;311.70;;;;;;;29.45;35.83;99529.06;5075698;27;102696;-64
2023/10/08 09:27:02;;;;;;;311.85;300.15;;;;;;;29.27;36.62;99516.16;5076322;27;104105;-64
2023/10/08 09:29:30;;;;;;;331.73;318.77;;;;;;;29.47;36.01;99527.00;5076286;27;103168;-65
2023/10/08 09:32:05;;;;;;;371.77;356.77;;;;;;;29.89;36.22;99520.22;5074244;27;102988;-64
2023/10/08 09:34:33;;;;;;;390.33;373.80;;;;;;;30.43;35.00;99517.88;5077346;27;104290;-65
2023/10/08 09:37:02;;;;;;;423.63;405.20;;;;;;;30.52;34.66;99512.16;5076920;27;103488;-64
2023/10/08 09:39:34;;;;;;;371.95;356.40;;;;;;;29.66;34.75;99519.81;5074080;27;103205;-64
2023/10/08 09:42:06;;;;;;;408.85;391.00;;;;;;;29.85;35.05;99527.97;5057852;27;102615;-65
2023/10/08 09:44:35;;;;;;;501.52;478.65;;;;;;;30.77;34.30;99530.22;5076252;27;102769;-64
2023/10/08 09:47:10;;;;;;;602.35;574.38;;;;;;;31.10;33.37;99518.25;5077096;27;103296;-64
2023/10/08 09:49:42;;;;;;;561.65;535.75;;;;;;;31.15;34.67;99513.81;5074569;27;103414;-63
2023/10/08 09:52:12;;;;;;;477.15;456.00;;;;;;;30.57;35.00;99506.91;5057329;27;102781;-63
2023/10/08 09:54:46;;;;;;;433.42;413.98;;;;;;;30.08;34.74;99518.44;5080394;27;103879;-64
2023/10/08 09:57:18;;;;;;;322.47;309.53;;;;;;;29.54;36.46;99516.06;5082940;27;103376;-64
2023/10/08 09:59:48;;;;;;;334.40;320.70;;;;;;;30.05;36.09;99517.00;5081620;27;103116;-64
2023/10/08 10:02:21;;;;;;;343.00;328.67;;;;;;;29.60;36.33;99515.22;5084186;27;102637;-64
2023/10/08 10:04:52;;;;;;;417.30;398.15;;;;;;;31.00;35.32;99511.41;5061183;27;102669;-64
2023/10/08 10:07:21;;;;;;;584.80;557.53;;;;;;;31.49;34.63;99513.31;5064317;27;104147;-64
2023/10/08 10:09:53;;;;;;;345.70;331.60;;;;;;;30.83;35.78;99515.72;5082622;27;103239;-65
2023/10/08 10:12:26;;;;;;;392.97;376.03;;;;;;;30.98;35.58;99526.34;5082800;27;102910;-65
2023/10/08 10:14:56;;;;;;;535.90;510.97;;;;;;;31.56;33.97;99532.31;5084436;27;103034;-65
2023/10/08 10:17:28;;;;;;;643.00;612.13;;;;;;;31.66;33.75;99529.09;5060523;27;103292;-65
2023/10/08 10:20:13;;;;;;;405.38;387.70;;;;;;;31.31;35.35;99535.06;5082932;27;103634;-65
2023/10/08 10:22:45;;;;;;;323.90;311.17;;;;;;;30.78;37.61;99541.97;5081702;27;102665;-64
2023/10/08 10:25:17;;;;;;;314.55;301.85;;;;;;;29.84;37.19;99537.19;5083576;27;104148;-64
2023/10/08 10:28:24;;;;;;;420.90;402.08;;;;;;;30.79;35.55;99532.75;5063187;27;104348;-64
2023/10/08 10:30:53;;;;;;;385.10;368.47;;;;;;;30.30;36.23;99534.28;5063727;27;104976;-64
2023/10/08 10:33:23;;;;;;;388.88;372.23;;;;;;;30.02;36.00;99530.19;5065735;27;102801;-65
2023/10/08 10:35:54;;;;;;;318.17;305.73;;;;;;;30.01;36.98;99534.81;5083787;27;104374;-64
2023/10/08 10:38:26;;;;;;;323.48;311.30;;;;;;;29.76;36.65;99536.53;5084334;27;104200;-63
2023/10/08 10:40:57;;;;;;;394.03;377.60;;;;;;;31.09;36.09;99530.22;5080293;27;103197;-63
2023/10/08 10:43:32;;;;;;;358.08;343.90;;;;;;;29.54;37.04;99540.56;5082442;27;102931;-64
2023/10/08 10:46:21;;;;;;;360.17;345.30;;;;;;;29.33;37.36;99549.00;5082173;27;102710;-65
2023/10/08 10:49:05;;;;;;;409.02;391.90;;;;;;;30.64;36.18;99556.75;5082726;27;103952;-64
2023/10/08 10:51:35;;;;;;;378.20;362.67;;;;;;;31.17;36.47;99536.25;5082087;27;103327;-64
2023/10/08 10:54:07;;;;;;;474.50;453.48;;;;;;;30.75;34.82;99531.50;5083141;27;102645;-65
2023/10/08 10:56:41;;;;;;;398.33;382.20;;;;;;;30.54;36.50;99534.59;5083534;27;104252;-64
2023/10/08 10:59:18;;;;;;;502.95;481.00;;;;;;;32.51;33.77;99523.38;5078696;27;103494;-64
2023/10/08 11:01:48;;;;;;;678.67;646.88;;;;;;;32.61;33.00;99523.72;5083814;27;103190;-65
2023/10/08 11:04:19;;;;;;;687.78;655.45;;;;;;;31.80;33.79;99514.22;5076717;27;103035;-63
2023/10/08 11:06:50;;;;;;;663.60;633.22;;;;;;;32.20;33.75;99515.41;5061143;27;102680;-63
2023/10/08 11:09:35;;;;;;;461.35;442.05;;;;;;;31.39;34.45;99507.47;5078100;27;103755;-63
2023/10/08 11:12:10;;;;;;;504.33;482.65;;;;;;;31.86;34.54;99511.38;5076903;27;103595;-63
2023/10/08 11:14:42;;;;;;;529.40;505.70;;;;;;;30.54;35.68;99507.34;5058949;27;102719;-63
2023/10/08 11:17:12;;;;;;;742.10;706.60;;;;;;;32.63;32.96;99510.63;5058397;27;104128;-63
2023/10/08 11:19:42;;;;;;;742.20;706.72;;;;;;;32.93;32.70;99515.22;5078299;27;104111;-63
2023/10/08 11:22:16;;;;;;;731.00;695.85;;;;;;;33.36;32.29;99496.59;5078969;27;103407;-64
2023/10/08 11:24:47;;;;;;;846.57;802.87;;;;;;;34.35;31.09;99507.25;5078832;27;102869;-63
2023/10/08 11:27:17;;;;;;;783.23;745.00;;;;;;;33.71;31.55;99500.13;5081177;27;102726;-63
2023/10/08 11:29:47;;;;;;;863.22;819.00;;;;;;;34.53;30.62;99500.72;5078545;27;104412;-63
2023/10/08 11:32:17;;;;;;;857.83;813.97;;;;;;;34.46;30.37;99494.56;5077459;27;103742;-62
2023/10/08 11:34:49;;;;;;;873.97;828.00;;;;;;;33.70;31.47;99478.47;5077046;27;103682;-62
2023/10/08 11:37:27;;;;;;;876.22;830.30;;;;;;;34.14;31.09;99487.91;5077133;27;102764;-62
2023/10/08 11:39:58;;;;;;;888.87;842.03;;;;;;;34.08;31.04;99480.66;5075797;27;103528;-62
2023/10/08 11:42:43;;;;;;;876.83;830.50;;;;;;;34.43;30.50;99488.72;5080211;27;104019;-62
2023/10/08 11:45:25;;;;;;;885.85;839.47;;;;;;;34.64;29.52;99477.91;5081270;27;104147;-63
2023/10/08 11:47:56;;;;;;;927.40;877.03;;;;;;;33.44;31.32;99473.47;5061540;27;104133;-63
2023/10/08 11:50:31;;;;;;;911.80;862.85;;;;;;;34.01;31.27;99469.81;5080267;27;104121;-62
2023/10/08 11:53:02;;;;;;;882.80;837.10;;;;;;;33.25;31.75;99465.41;5081243;27;103188;-63